Time;durP1;ratioP1;P1;durP2;ratioP2;P2;SDS_P1;SDS_P2;PMS_P1;PMS_P2;Temp;Humidity;BMP_temperature;BMP_pressure;BME280_temperature;BME280_humidity;BME280_pressure;Samples;Min_cycle;Max_cycle;Signal;HPM_P1;HPM_P2
2022/02/19 00:00:57;;;;;;;0.07;0.07;;;8.00;99.90;;;;;;5020252;28;20188;-85
2022/02/19 00:03:23;;;;;;;0.10;0.10;;;7.90;99.90;;;;;;5026409;28;20182;-86
2022/02/19 00:05:48;;;;;;;0.10;0.10;;;7.90;99.90;;;;;;5026804;28;20277;-85
2022/02/19 00:08:14;;;;;;;0.10;0.10;;;7.90;99.90;;;;;;5026675;28;20320;-85
2022/02/19 00:10:41;;;;;;;0.40;0.40;;;7.90;99.90;;;;;;5019748;28;20182;-85
2022/02/19 00:13:06;;;;;;;0.10;0.10;;;7.80;99.90;;;;;;5026344;28;20225;-85
2022/02/19 00:15:34;;;;;;;0.10;0.10;;;7.80;99.90;;;;;;5020973;28;20234;-86
2022/02/19 00:17:59;;;;;;;0.23;0.23;;;7.90;99.90;;;;;;5020630;28;20684;-85
2022/02/19 00:20:25;;;;;;;0.10;0.10;;;7.90;99.90;;;;;;5024921;28;20192;-86
2022/02/19 00:22:51;;;;;;;0.20;0.20;;;7.90;99.90;;;;;;5027521;28;20252;-85
2022/02/19 00:25:16;;;;;;;1.07;0.60;;;7.90;99.90;;;;;;5024686;28;20210;-85
2022/02/19 00:27:44;;;;;;;0.10;0.10;;;7.90;99.90;;;;;;5025092;28;20228;-84
2022/02/19 00:30:10;;;;;;;0.10;0.10;;;8.00;99.90;;;;;;5026567;28;20188;-84
2022/02/19 00:32:36;;;;;;;0.00;0.00;;;8.00;99.90;;;;;;5023829;28;20210;-85
2022/02/19 00:35:01;;;;;;;2.10;0.20;;;8.00;99.90;;;;;;5027204;28;21097;-85
2022/02/19 00:37:27;;;;;;;0.40;0.17;;;8.00;99.90;;;;;;5023561;28;20208;-84
2022/02/19 00:39:53;;;;;;;0.13;0.13;;;7.90;99.90;;;;;;5022540;28;20187;-85
2022/02/19 00:42:18;;;;;;;0.43;0.30;;;7.80;99.90;;;;;;5024038;28;20194;-85
2022/02/19 00:44:44;;;;;;;0.33;0.33;;;7.80;99.90;;;;;;5025960;28;20179;-85
2022/02/19 00:47:09;;;;;;;0.33;0.33;;;7.80;99.90;;;;;;5026625;28;20210;-85
2022/02/19 00:49:35;;;;;;;1.33;0.50;;;7.70;99.90;;;;;;5021784;28;20189;-85
2022/02/19 00:52:02;;;;;;;0.50;0.43;;;7.80;99.90;;;;;;5022312;28;20182;-85
2022/02/19 00:54:27;;;;;;;0.07;0.07;;;7.80;99.90;;;;;;5024855;28;20228;-86
2022/02/19 00:56:53;;;;;;;0.00;0.00;;;7.70;99.90;;;;;;5021929;28;20239;-85
2022/02/19 00:59:18;;;;;;;0.10;0.10;;;7.60;99.90;;;;;;5026672;28;20703;-86
2022/02/19 01:01:44;;;;;;;0.10;0.10;;;7.40;99.90;;;;;;5022250;28;20190;-87
2022/02/19 01:04:09;;;;;;;0.47;0.30;;;7.30;99.90;;;;;;5022844;28;20191;-87
2022/02/19 01:06:35;;;;;;;1.90;0.63;;;7.10;99.90;;;;;;5021805;28;20215;-85
2022/02/19 01:09:02;;;;;;;0.00;0.00;;;7.00;99.90;;;;;;5021725;28;20215;-85
2022/02/19 01:11:27;;;;;;;0.37;0.37;;;6.90;99.90;;;;;;5026199;28;20183;-85
2022/02/19 01:13:53;;;;;;;0.77;0.50;;;6.80;99.90;;;;;;5024757;28;21176;-85
2022/02/19 01:16:18;;;;;;;0.40;0.40;;;6.70;99.90;;;;;;5026695;28;20218;-85
2022/02/19 01:18:44;;;;;;;0.17;0.17;;;6.60;99.90;;;;;;5024694;28;20186;-85
2022/02/19 01:21:10;;;;;;;0.10;0.10;;;6.60;99.90;;;;;;5025151;28;20186;-86
2022/02/19 01:23:35;;;;;;;0.20;0.20;;;6.60;99.90;;;;;;5025078;28;20273;-84
2022/02/19 01:26:02;;;;;;;0.30;0.30;;;6.60;99.90;;;;;;5026259;28;20237;-85
2022/02/19 01:28:30;;;;;;;0.10;0.10;;;6.50;99.90;;;;;;5025043;28;20187;-85
2022/02/19 01:30:56;;;;;;;1.07;1.07;;;6.50;99.90;;;;;;5025797;28;20186;-85
2022/02/19 01:33:22;;;;;;;0.27;0.27;;;6.40;99.90;;;;;;5026480;28;20684;-85
2022/02/19 01:35:47;;;;;;;0.10;0.10;;;6.40;99.90;;;;;;5024940;28;20190;-85
2022/02/19 01:38:13;;;;;;;0.57;0.57;;;6.40;99.90;;;;;;5022691;28;20267;-85
2022/02/19 01:40:39;;;;;;;0.00;0.00;;;6.40;99.90;;;;;;5027033;28;20772;-85
2022/02/19 01:43:05;;;;;;;0.00;0.00;;;6.40;99.90;;;;;;5022245;28;20178;-85
2022/02/19 01:45:30;;;;;;;2.90;0.30;;;6.60;99.90;;;;;;5026958;28;20248;-85
2022/02/19 01:47:56;;;;;;;0.00;0.00;;;6.60;99.90;;;;;;5022101;28;20232;-85
2022/02/19 01:50:21;;;;;;;0.10;0.10;;;6.60;99.90;;;;;;5024668;28;20989;-85
2022/02/19 01:52:47;;;;;;;0.03;0.03;;;6.60;99.90;;;;;;5023071;28;20186;-85
2022/02/19 01:55:13;;;;;;;0.10;0.10;;;6.60;99.90;;;;;;5024290;28;20218;-85
2022/02/19 01:57:38;;;;;;;0.60;0.60;;;6.60;99.90;;;;;;5024876;28;20632;-87
2022/02/19 02:00:06;;;;;;;0.20;0.20;;;6.60;99.90;;;;;;5026926;28;20202;-84
2022/02/19 02:02:32;;;;;;;3.80;0.33;;;6.60;99.90;;;;;;5028287;28;20269;-85
2022/02/19 02:04:57;;;;;;;0.10;0.10;;;6.50;99.90;;;;;;5021423;28;20322;-85
2022/02/19 02:07:23;;;;;;;0.10;0.10;;;6.50;99.90;;;;;;5025342;28;20302;-85
2022/02/19 02:09:49;;;;;;;0.00;0.00;;;6.50;99.90;;;;;;5026652;28;20214;-85
2022/02/19 02:12:14;;;;;;;0.27;0.20;;;6.60;99.90;;;;;;5027303;28;20186;-85
2022/02/19 02:14:41;;;;;;;0.50;0.50;;;6.50;99.90;;;;;;5027239;28;20650;-85
2022/02/19 02:17:12;;;;;;;0.10;0.10;;;6.50;99.90;;;;;;5026437;28;20238;-85
2022/02/19 02:19:38;;;;;;;0.10;0.10;;;6.60;99.90;;;;;;5026884;28;20217;-86
2022/02/19 02:22:05;;;;;;;0.40;0.40;;;6.60;99.90;;;;;;5024358;28;20247;-85
2022/02/19 02:24:34;;;;;;;1.00;0.93;;;6.80;99.90;;;;;;5024796;28;20198;-85
2022/02/19 02:26:59;;;;;;;0.30;0.30;;;6.90;99.90;;;;;;5026475;28;20242;-86
2022/02/19 02:29:25;;;;;;;0.10;0.10;;;6.80;99.90;;;;;;5023641;28;20230;-87
2022/02/19 02:31:51;;;;;;;0.00;0.00;;;6.70;99.90;;;;;;5027898;28;20186;-85
2022/02/19 02:34:19;;;;;;;0.00;0.00;;;6.60;99.90;;;;;;5028723;28;20643;-85
2022/02/19 02:36:44;;;;;;;0.00;0.00;;;6.60;99.90;;;;;;5025586;28;20297;-86
2022/02/19 02:39:10;;;;;;;6.53;1.17;;;6.50;99.90;;;;;;5026708;28;20283;-85
2022/02/19 02:41:35;;;;;;;0.00;0.00;;;6.60;99.90;;;;;;5027096;28;20190;-85
2022/02/19 02:44:01;;;;;;;0.73;0.73;;;6.60;99.90;;;;;;5028418;28;20659;-85
2022/02/19 02:46:26;;;;;;;0.10;0.10;;;6.50;99.90;;;;;;5028367;28;20735;-85
2022/02/19 02:48:52;;;;;;;0.03;0.03;;;6.40;99.90;;;;;;5024652;28;20179;-85
2022/02/19 02:51:17;;;;;;;0.20;0.20;;;6.20;99.90;;;;;;5023259;28;20570;-85
2022/02/19 02:53:43;;;;;;;0.10;0.10;;;6.00;99.90;;;;;;5026464;28;20194;-85
2022/02/19 02:56:08;;;;;;;0.00;0.00;;;5.80;99.90;;;;;;5024009;28;20301;-85
2022/02/19 02:58:34;;;;;;;0.30;0.30;;;5.70;99.90;;;;;;5023478;28;20183;-86
2022/02/19 03:01:00;;;;;;;0.20;0.20;;;5.60;99.90;;;;;;5027826;28;20186;-85
2022/02/19 03:03:25;;;;;;;0.07;0.07;;;5.70;99.90;;;;;;5028501;28;20201;-85
2022/02/19 03:05:51;;;;;;;0.57;0.57;;;5.70;99.90;;;;;;5024303;28;20277;-84
2022/02/19 03:08:16;;;;;;;0.37;0.37;;;5.90;99.90;;;;;;5027473;28;20616;-85
2022/02/19 03:10:42;;;;;;;0.10;0.10;;;6.10;99.90;;;;;;5024206;28;20194;-85
2022/02/19 03:13:07;;;;;;;0.00;0.00;;;6.10;99.90;;;;;;5027336;28;20194;-85
2022/02/19 03:15:33;;;;;;;0.00;0.00;;;6.00;99.90;;;;;;5026038;28;20643;-84
2022/02/19 03:17:58;;;;;;;0.10;0.10;;;5.90;99.90;;;;;;5025602;28;20194;-85
2022/02/19 03:20:26;;;;;;;0.10;0.10;;;5.70;99.90;;;;;;5028017;28;20224;-85
2022/02/19 03:22:52;;;;;;;0.00;0.00;;;5.70;99.90;;;;;;5023183;28;20753;-85
2022/02/19 03:25:17;;;;;;;0.17;0.17;;;5.70;99.90;;;;;;5027199;28;20186;-85
2022/02/19 03:27:44;;;;;;;0.10;0.10;;;5.70;99.90;;;;;;5025096;28;20305;-86
2022/02/19 03:30:11;;;;;;;0.37;0.20;;;5.70;99.90;;;;;;5024359;28;20179;-85
2022/02/19 03:32:38;;;;;;;0.33;0.33;;;5.80;99.90;;;;;;5026093;28;20193;-84
2022/02/19 03:35:05;;;;;;;0.10;0.10;;;6.00;99.90;;;;;;5043497;28;20197;-86
2022/02/19 03:37:35;;;;;;;0.67;0.43;;;6.10;99.90;;;;;;5026226;28;20221;-84
2022/02/19 03:40:06;;;;;;;0.30;0.30;;;5.90;99.90;;;;;;5027537;28;20189;-85
2022/02/19 03:42:32;;;;;;;0.10;0.10;;;5.70;99.90;;;;;;5025391;28;20220;-86
2022/02/19 03:44:58;;;;;;;0.10;0.10;;;5.70;99.90;;;;;;5025603;28;20214;-84
2022/02/19 03:47:23;;;;;;;0.30;0.30;;;5.60;99.90;;;;;;5027798;28;20667;-85
2022/02/19 03:49:49;;;;;;;0.00;0.00;;;5.50;99.90;;;;;;5027194;28;20186;-85
2022/02/19 03:52:14;;;;;;;1.33;0.67;;;5.30;99.90;;;;;;5027556;28;20205;-86
2022/02/19 03:54:40;;;;;;;0.10;0.10;;;5.20;99.90;;;;;;5024298;28;20193;-85
2022/02/19 03:57:05;;;;;;;0.00;0.00;;;5.00;99.90;;;;;;5026983;28;20209;-85
2022/02/19 03:59:31;;;;;;;0.03;0.03;;;4.80;99.90;;;;;;5026379;28;20205;-85
2022/02/19 04:01:56;;;;;;;0.07;0.07;;;4.50;99.90;;;;;;5024841;28;20197;-85
2022/02/19 04:04:23;;;;;;;0.00;0.00;;;4.30;99.90;;;;;;5027108;28;20725;-85
2022/02/19 04:06:49;;;;;;;0.00;0.00;;;4.20;99.90;;;;;;5025869;28;20210;-85
2022/02/19 04:09:14;;;;;;;0.10;0.10;;;4.20;99.90;;;;;;5026949;28;20187;-85
2022/02/19 04:11:41;;;;;;;0.10;0.10;;;4.20;99.90;;;;;;5025572;28;20189;-84
2022/02/19 04:14:07;;;;;;;0.20;0.20;;;4.20;99.90;;;;;;5025515;28;20174;-85
2022/02/19 04:16:33;;;;;;;0.20;0.20;;;4.30;99.90;;;;;;5025299;28;20215;-85
2022/02/19 04:18:58;;;;;;;0.00;0.00;;;4.30;99.90;;;;;;5025384;28;20189;-85
2022/02/19 04:21:24;;;;;;;0.53;0.53;;;4.30;99.90;;;;;;5025847;28;20213;-84
2022/02/19 04:23:49;;;;;;;2.90;0.40;;;4.30;99.90;;;;;;5023291;28;20185;-85
2022/02/19 04:26:15;;;;;;;0.10;0.10;;;4.30;99.90;;;;;;5023373;28;20231;-85
2022/02/19 04:28:40;;;;;;;0.00;0.00;;;4.40;99.90;;;;;;5023693;28;20581;-85
2022/02/19 04:31:06;;;;;;;0.63;0.33;;;4.40;99.90;;;;;;5023430;28;20552;-85
2022/02/19 04:33:31;;;;;;;0.03;0.03;;;4.50;99.90;;;;;;5026359;28;20192;-85
2022/02/19 04:35:57;;;;;;;0.43;0.20;;;4.60;99.90;;;;;;5025936;28;20342;-84
2022/02/19 04:38:24;;;;;;;0.73;0.10;;;4.70;99.90;;;;;;5022147;28;20770;-85
2022/02/19 04:40:50;;;;;;;0.10;0.10;;;4.70;99.90;;;;;;5025618;28;20189;-85
2022/02/19 04:43:16;;;;;;;0.00;0.00;;;4.60;99.90;;;;;;5023392;28;20205;-85
2022/02/19 04:45:41;;;;;;;0.10;0.10;;;4.70;99.90;;;;;;5026825;28;20195;-85
2022/02/19 04:48:07;;;;;;;0.40;0.20;;;4.70;99.90;;;;;;5024974;28;20856;-84
2022/02/19 04:50:33;;;;;;;0.00;0.00;;;4.70;99.90;;;;;;5025146;28;20200;-84
2022/02/19 04:52:58;;;;;;;0.10;0.10;;;4.80;99.90;;;;;;5024841;28;20189;-86
2022/02/19 04:55:24;;;;;;;0.60;0.37;;;4.80;99.90;;;;;;5024105;28;20685;-85
2022/02/19 04:57:49;;;;;;;0.10;0.10;;;4.80;99.90;;;;;;5022736;28;20213;-85
2022/02/19 05:00:17;;;;;;;0.10;0.10;;;4.80;99.90;;;;;;5026404;28;20258;-85
2022/02/19 05:02:43;;;;;;;0.30;0.30;;;4.90;99.90;;;;;;5024804;28;20224;-85
2022/02/19 05:05:09;;;;;;;0.00;0.00;;;4.90;99.90;;;;;;5020332;28;20262;-85
2022/02/19 05:07:35;;;;;;;0.20;0.20;;;4.90;99.90;;;;;;5023750;28;20204;-84
2022/02/19 05:10:02;;;;;;;0.10;0.10;;;4.90;99.90;;;;;;5026182;28;20196;-85
2022/02/19 05:12:27;;;;;;;0.60;0.40;;;5.00;99.90;;;;;;5023922;28;20556;-85
2022/02/19 05:14:53;;;;;;;2.13;0.80;;;4.90;99.90;;;;;;5025430;28;20197;-85
2022/02/19 05:17:18;;;;;;;7.00;0.40;;;4.90;99.90;;;;;;5023212;28;20206;-85
2022/02/19 05:19:44;;;;;;;0.70;0.70;;;4.90;99.90;;;;;;5024087;28;20599;-85
2022/02/19 05:22:10;;;;;;;0.00;0.00;;;4.90;99.90;;;;;;5021887;28;20212;-85
2022/02/19 05:24:35;;;;;;;1.27;1.17;;;5.00;99.90;;;;;;5027372;28;20270;-84
2022/02/19 05:27:01;;;;;;;0.40;0.40;;;5.00;99.90;;;;;;5025248;28;20213;-86
2022/02/19 05:29:26;;;;;;;0.40;0.40;;;5.00;99.90;;;;;;5021113;28;20193;-85
2022/02/19 05:31:52;;;;;;;0.20;0.20;;;5.00;99.90;;;;;;5024979;28;20197;-85
2022/02/19 05:34:17;;;;;;;0.40;0.40;;;5.10;99.90;;;;;;5032774;28;20308;-86
2022/02/19 05:36:43;;;;;;;0.00;0.00;;;5.10;99.90;;;;;;5039861;28;20222;-85
2022/02/19 05:39:08;;;;;;;0.10;0.10;;;5.00;99.90;;;;;;5041671;28;20209;-85
2022/02/19 05:41:34;;;;;;;0.40;0.40;;;5.10;99.90;;;;;;5040258;28;20195;-85
2022/02/19 05:44:04;;;;;;;0.10;0.10;;;5.10;99.90;;;;;;5042409;28;20260;-85
2022/02/19 05:46:34;;;;;;;0.03;0.03;;;5.10;99.90;;;;;;5032422;28;20216;-85
2022/02/19 05:49:00;;;;;;;0.23;0.23;;;5.10;99.90;;;;;;5029880;28;20688;-85
2022/02/19 05:51:27;;;;;;;2.20;2.00;;;5.10;99.90;;;;;;5026789;28;20260;-85
2022/02/19 05:53:52;;;;;;;0.10;0.10;;;5.00;99.90;;;;;;5029942;28;20175;-84
2022/02/19 05:56:18;;;;;;;0.00;0.00;;;5.00;99.90;;;;;;5029171;28;20225;-85
2022/02/19 05:58:43;;;;;;;0.30;0.30;;;5.00;99.90;;;;;;5026349;28;21206;-85
2022/02/19 06:01:10;;;;;;;0.20;0.20;;;5.00;99.90;;;;;;5027825;28;20216;-85
2022/02/19 06:03:35;;;;;;;0.10;0.10;;;4.90;99.90;;;;;;5025764;28;20283;-85
2022/02/19 06:06:01;;;;;;;0.10;0.10;;;4.90;99.90;;;;;;5026130;28;20310;-85
2022/02/19 06:08:27;;;;;;;0.83;0.83;;;4.90;99.90;;;;;;5026550;28;20187;-85
2022/02/19 06:10:52;;;;;;;0.40;0.40;;;4.90;99.90;;;;;;5026700;28;20204;-85
2022/02/19 06:13:17;;;;;;;0.40;0.33;;;4.90;99.90;;;;;;5028456;28;20236;-84
2022/02/19 06:15:43;;;;;;;0.10;0.10;;;4.90;99.90;;;;;;5027887;28;20545;-85
2022/02/19 06:18:09;;;;;;;0.27;0.27;;;5.00;99.90;;;;;;5028280;28;20235;-84
2022/02/19 06:20:34;;;;;;;0.23;0.23;;;5.00;99.90;;;;;;5028528;28;20201;-84
2022/02/19 06:23:00;;;;;;;0.20;0.20;;;5.00;99.90;;;;;;5027307;28;20284;-84
2022/02/19 06:25:26;;;;;;;0.47;0.17;;;5.00;99.90;;;;;;5030068;28;20212;-84
2022/02/19 06:27:51;;;;;;;0.03;0.03;;;5.00;99.90;;;;;;5028032;28;20275;-84
2022/02/19 06:30:17;;;;;;;0.10;0.10;;;5.00;99.90;;;;;;5025160;28;20277;-84
2022/02/19 06:32:43;;;;;;;0.00;0.00;;;5.00;99.90;;;;;;5029646;28;20293;-83
2022/02/19 06:35:09;;;;;;;0.10;0.10;;;4.90;99.90;;;;;;5026091;28;20277;-84
2022/02/19 06:37:43;;;;;;;0.30;0.30;;;4.90;99.90;;;;;;5028804;28;20233;-85
2022/02/19 06:40:10;;;;;;;0.00;0.00;;;4.90;99.90;;;;;;5029054;28;20183;-85
2022/02/19 06:42:36;;;;;;;0.17;0.17;;;4.90;99.90;;;;;;5024483;28;20209;-86
2022/02/19 06:45:04;;;;;;;0.10;0.10;;;4.90;99.90;;;;;;5029141;28;20189;-85
2022/02/19 06:47:30;;;;;;;0.63;0.63;;;5.00;99.90;;;;;;5027608;28;20699;-85
2022/02/19 06:49:55;;;;;;;0.00;0.00;;;5.00;99.90;;;;;;5027804;28;20203;-85
2022/02/19 06:52:21;;;;;;;0.40;0.40;;;4.90;99.90;;;;;;5029844;28;20179;-85
2022/02/19 06:54:46;;;;;;;0.10;0.10;;;4.90;99.90;;;;;;5027638;28;20580;-85
2022/02/19 06:57:14;;;;;;;0.10;0.10;;;4.90;99.90;;;;;;5024939;28;20214;-85
2022/02/19 06:59:43;;;;;;;0.10;0.10;;;4.90;99.90;;;;;;5027260;28;20289;-85
2022/02/19 07:02:08;;;;;;;0.50;0.20;;;4.90;99.90;;;;;;5028069;28;20631;-85
2022/02/19 07:04:34;;;;;;;0.10;0.10;;;4.90;99.90;;;;;;5029164;28;20289;-86
2022/02/19 07:07:00;;;;;;;0.00;0.00;;;4.90;99.90;;;;;;5026891;28;20240;-85
2022/02/19 07:09:25;;;;;;;0.20;0.20;;;5.00;99.90;;;;;;5021102;28;20214;-84
2022/02/19 07:11:54;;;;;;;0.00;0.00;;;5.00;99.90;;;;;;5027122;28;20193;-81
2022/02/19 07:14:20;;;;;;;0.10;0.10;;;5.10;99.90;;;;;;5024727;28;20191;-82
2022/02/19 07:16:45;;;;;;;0.10;0.10;;;5.20;99.90;;;;;;5026619;28;20275;-82
2022/02/19 07:19:11;;;;;;;2.87;0.70;;;5.30;99.90;;;;;;5025560;28;20677;-82
2022/02/19 07:21:37;;;;;;;0.20;0.20;;;5.40;99.90;;;;;;5024619;28;20186;-82
2022/02/19 07:24:04;;;;;;;0.27;0.27;;;5.50;99.90;;;;;;5024443;28;20226;-83
2022/02/19 07:26:29;;;;;;;0.10;0.10;;;5.60;99.90;;;;;;5023973;28;20218;-83
2022/02/19 07:28:55;;;;;;;0.20;0.20;;;5.70;99.90;;;;;;5025858;28;20186;-83
2022/02/19 07:31:21;;;;;;;0.10;0.10;;;5.80;99.90;;;;;;5027171;28;20183;-82
2022/02/19 07:33:46;;;;;;;0.20;0.20;;;5.80;99.90;;;;;;5026004;28;20183;-83
2022/02/19 07:36:12;;;;;;;0.30;0.30;;;5.90;99.90;;;;;;5023602;28;20555;-82
2022/02/19 07:38:37;;;;;;;0.33;0.33;;;6.00;99.90;;;;;;5021763;28;20195;-83
2022/02/19 07:41:03;;;;;;;0.13;0.13;;;6.10;99.90;;;;;;5022399;28;20205;-82
2022/02/19 07:43:28;;;;;;;0.10;0.10;;;6.20;99.90;;;;;;5026330;28;20190;-83
2022/02/19 07:45:54;;;;;;;0.30;0.30;;;6.20;99.90;;;;;;5026883;28;20597;-82
2022/02/19 07:48:20;;;;;;;0.03;0.03;;;6.30;99.90;;;;;;5026202;28;20239;-82
2022/02/19 07:58:58;;;;;;;0.03;0.03;;;6.80;99.90;;;;;;5029245;28;20193;-82
2022/02/19 08:01:24;;;;;;;0.10;0.10;;;6.90;99.90;;;;;;5028464;28;20182;-83
2022/02/19 08:03:49;;;;;;;0.07;0.07;;;7.00;99.90;;;;;;5029766;28;20660;-83
2022/02/19 08:06:15;;;;;;;0.10;0.10;;;7.10;99.90;;;;;;5028691;28;20679;-82
2022/02/19 08:08:41;;;;;;;0.20;0.20;;;7.20;99.90;;;;;;5028167;28;20193;-82
2022/02/19 08:11:06;;;;;;;0.53;0.53;;;7.30;99.90;;;;;;5028291;28;20186;-83
2022/02/19 08:13:32;;;;;;;0.03;0.03;;;7.30;99.90;;;;;;5028862;28;20186;-82
2022/02/19 08:15:58;;;;;;;1.07;1.07;;;7.40;99.90;;;;;;5022798;28;20295;-82
2022/02/19 08:18:24;;;;;;;0.53;0.53;;;7.40;99.90;;;;;;5029885;28;20190;-81
2022/02/19 08:20:51;;;;;;;0.77;0.30;;;7.50;99.90;;;;;;5026492;28;20193;-82
2022/02/19 08:23:18;;;;;;;0.53;0.30;;;7.60;99.90;;;;;;5027617;28;20364;-83
2022/02/19 08:25:48;;;;;;;0.47;0.30;;;7.60;99.90;;;;;;5025559;28;20723;-83
2022/02/19 08:28:13;;;;;;;6.40;0.20;;;7.70;99.90;;;;;;5028915;28;20729;-82
2022/02/19 08:30:41;;;;;;;0.83;0.83;;;7.60;99.90;;;;;;5026640;28;20269;-82
2022/02/19 08:33:08;;;;;;;0.10;0.10;;;7.80;99.90;;;;;;5025312;28;20187;-83
2022/02/19 08:35:34;;;;;;;0.10;0.10;;;8.00;99.90;;;;;;5026230;28;20182;-82
2022/02/19 08:38:00;;;;;;;0.10;0.10;;;7.80;99.90;;;;;;5026564;28;20194;-82
2022/02/19 08:40:26;;;;;;;0.00;0.00;;;7.90;99.90;;;;;;5028889;28;20188;-82
2022/02/19 08:42:52;;;;;;;0.10;0.10;;;8.00;99.90;;;;;;5025252;28;20186;-82
2022/02/19 08:45:18;;;;;;;0.17;0.17;;;8.00;99.90;;;;;;5025991;28;20194;-85
2022/02/19 08:47:45;;;;;;;0.10;0.10;;;8.10;99.90;;;;;;5027250;28;20287;-85
2022/02/19 08:50:12;;;;;;;0.10;0.10;;;7.90;99.90;;;;;;5018965;28;20212;-85
2022/02/19 08:52:39;;;;;;;0.10;0.10;;;8.00;99.90;;;;;;5022432;28;20349;-85
2022/02/19 08:55:06;;;;;;;0.10;0.10;;;8.10;99.90;;;;;;5027542;28;20214;-85
2022/02/19 08:57:31;;;;;;;0.67;0.63;;;8.20;99.90;;;;;;5021753;28;20705;-84
2022/02/19 08:59:57;;;;;;;0.10;0.10;;;8.30;99.90;;;;;;5024673;28;20194;-84
2022/02/19 09:02:22;;;;;;;0.00;0.00;;;8.20;99.90;;;;;;5028271;28;20188;-85
2022/02/19 09:04:48;;;;;;;0.10;0.10;;;8.30;99.90;;;;;;5024515;28;20240;-85
2022/02/19 09:07:16;;;;;;;0.97;0.20;;;8.30;99.90;;;;;;5024567;28;20303;-85
2022/02/19 09:09:42;;;;;;;0.07;0.07;;;8.30;99.90;;;;;;5027405;28;20177;-84
2022/02/19 09:12:09;;;;;;;0.03;0.03;;;8.70;99.90;;;;;;5026430;28;20314;-85
2022/02/19 09:14:34;;;;;;;1.93;1.03;;;8.60;99.90;;;;;;5025698;28;20903;-85
2022/02/19 09:17:00;;;;;;;0.10;0.10;;;8.60;99.90;;;;;;5025412;28;20273;-84
2022/02/19 09:19:28;;;;;;;1.80;0.57;;;8.60;99.90;;;;;;5024706;28;20274;-86
2022/02/19 09:21:54;;;;;;;0.33;0.33;;;8.80;99.90;;;;;;5025382;28;20731;-85
2022/02/19 09:24:19;;;;;;;0.30;0.30;;;8.60;99.90;;;;;;5025330;28;20188;-84
2022/02/19 09:26:45;;;;;;;0.37;0.37;;;8.50;99.90;;;;;;5020350;28;20261;-85
2022/02/19 09:29:10;;;;;;;0.60;0.60;;;8.40;99.90;;;;;;5024070;28;20188;-83
2022/02/19 09:31:37;;;;;;;0.10;0.10;;;8.60;99.90;;;;;;5025102;28;20180;-84
2022/02/19 09:34:04;;;;;;;2.53;0.37;;;8.60;99.90;;;;;;5025971;28;20192;-86
2022/02/19 09:36:29;;;;;;;0.30;0.30;;;8.80;99.90;;;;;;5022510;28;20214;-84
2022/02/19 09:38:55;;;;;;;1.50;0.50;;;8.70;99.90;;;;;;5027303;28;20201;-84
2022/02/19 09:41:21;;;;;;;4.30;0.60;;;8.70;99.90;;;;;;5025725;28;20183;-85
2022/02/19 09:43:46;;;;;;;0.37;0.37;;;8.70;99.90;;;;;;5026211;28;20275;-85
2022/02/19 09:46:14;;;;;;;0.10;0.10;;;8.90;99.90;;;;;;5023847;28;20209;-85
2022/02/19 09:48:43;;;;;;;0.33;0.33;;;9.00;99.90;;;;;;5027115;28;20178;-84
2022/02/19 09:51:10;;;;;;;2.70;0.33;;;9.20;99.90;;;;;;5025507;28;20180;-84
2022/02/19 09:53:38;;;;;;;2.30;0.30;;;9.30;99.90;;;;;;5022571;28;20189;-85
2022/02/19 09:56:04;;;;;;;0.20;0.20;;;9.10;99.90;;;;;;5021455;28;20294;-83
2022/02/19 09:58:33;;;;;;;0.00;0.00;;;9.40;99.90;;;;;;5022800;28;20238;-85
2022/02/19 10:01:14;;;;;;;0.03;0.03;;;9.20;99.90;;;;;;5019399;28;20667;-82
2022/02/19 10:03:40;;;;;;;0.10;0.10;;;9.10;99.90;;;;;;5017394;28;20286;-82
2022/02/19 10:06:11;;;;;;;0.10;0.10;;;9.20;99.90;;;;;;5023714;28;20331;-82
2022/02/19 10:08:37;;;;;;;0.10;0.10;;;9.20;99.90;;;;;;5019956;28;20646;-83
2022/02/19 10:11:04;;;;;;;0.30;0.10;;;9.40;99.90;;;;;;5021756;28;20182;-82
2022/02/19 10:13:38;;;;;;;0.10;0.10;;;9.50;99.90;;;;;;5027218;28;20190;-83
2022/02/19 10:16:06;;;;;;;0.10;0.10;;;9.30;99.90;;;;;;5023827;28;20234;-82
2022/02/19 10:18:34;;;;;;;1.20;0.27;;;9.40;99.90;;;;;;5025594;28;20214;-82
2022/02/19 10:21:17;;;;;;;1.87;1.30;;;9.10;99.90;;;;;;5021284;28;20197;-84
2022/02/19 10:23:45;;;;;;;2.07;0.40;;;9.30;99.90;;;;;;5027107;28;20181;-82
2022/02/19 10:26:12;;;;;;;0.40;0.40;;;9.10;99.90;;;;;;5030129;28;20232;-82
2022/02/19 10:28:38;;;;;;;0.10;0.10;;;9.30;99.90;;;;;;5028574;28;20249;-82
2022/02/19 10:31:17;;;;;;;1.70;1.33;;;9.10;99.90;;;;;;5028723;28;20180;-82
2022/02/19 10:33:43;;;;;;;0.10;0.10;;;9.10;99.90;;;;;;5046471;28;20186;-82
2022/02/19 10:36:21;;;;;;;0.00;0.00;;;9.30;99.90;;;;;;5026005;28;20206;-81
2022/02/19 10:38:58;;;;;;;0.40;0.40;;;9.10;99.90;;;;;;5025406;28;20189;-82
2022/02/19 10:41:38;;;;;;;0.17;0.17;;;9.40;99.90;;;;;;5027555;28;20760;-83
2022/02/19 10:44:26;;;;;;;0.10;0.10;;;9.50;99.90;;;;;;5025942;28;20695;-82
2022/02/19 10:46:55;;;;;;;0.10;0.10;;;9.20;99.90;;;;;;5029115;28;20316;-82
2022/02/19 10:49:21;;;;;;;0.10;0.10;;;9.30;99.90;;;;;;5026021;28;20294;-82
2022/02/19 10:51:47;;;;;;;0.37;0.37;;;9.50;99.90;;;;;;5040530;28;20221;-83
2022/02/19 10:54:20;;;;;;;0.10;0.10;;;9.80;99.90;;;;;;5025401;28;20353;-83
2022/02/19 10:56:45;;;;;;;2.70;0.43;;;9.70;99.90;;;;;;5027064;28;21034;-82
2022/02/19 10:59:13;;;;;;;0.20;0.20;;;9.90;99.90;;;;;;5029201;28;20228;-82
2022/02/19 11:01:39;;;;;;;3.37;0.53;;;10.10;99.90;;;;;;5030667;28;20564;-82
2022/02/19 11:04:09;;;;;;;0.10;0.10;;;9.80;99.90;;;;;;5029327;28;20187;-82
2022/02/19 11:06:36;;;;;;;0.10;0.10;;;9.80;99.90;;;;;;5026467;28;20212;-82
2022/02/19 11:09:03;;;;;;;0.10;0.10;;;10.00;99.90;;;;;;5028482;28;20184;-82
2022/02/19 11:11:31;;;;;;;3.20;0.77;;;10.20;99.90;;;;;;5027082;28;20236;-83
2022/02/19 11:13:57;;;;;;;4.03;1.30;;;10.30;99.90;;;;;;5028051;28;20185;-83
2022/02/19 11:16:24;;;;;;;0.30;0.30;;;10.50;99.90;;;;;;5026264;28;20599;-83
2022/02/19 11:18:49;;;;;;;0.73;0.73;;;10.50;99.90;;;;;;5027024;28;20183;-83
2022/02/19 11:21:16;;;;;;;0.00;0.00;;;10.70;99.90;;;;;;5022572;28;20240;-83
2022/02/19 11:23:45;;;;;;;0.10;0.10;;;10.80;99.90;;;;;;5029020;28;20194;-83
2022/02/19 11:26:11;;;;;;;0.47;0.33;;;10.30;99.90;;;;;;5021576;28;20209;-83
2022/02/19 11:28:38;;;;;;;0.27;0.27;;;10.20;99.90;;;;;;5024301;28;20435;-83
2022/02/19 11:31:06;;;;;;;0.73;0.30;;;10.20;99.90;;;;;;5026494;28;21069;-82
2022/02/19 11:33:33;;;;;;;3.03;0.97;;;10.10;99.90;;;;;;5024369;28;20578;-83
2022/02/19 11:36:00;;;;;;;0.40;0.17;;;9.90;99.90;;;;;;5026184;28;20678;-83
2022/02/19 11:38:26;;;;;;;0.03;0.03;;;10.00;99.90;;;;;;5019404;28;20235;-83
2022/02/19 11:40:54;;;;;;;0.60;0.60;;;10.10;99.90;;;;;;5028892;28;20201;-83
2022/02/19 11:43:55;;;;;;;0.10;0.10;;;10.40;99.90;;;;;;5026540;28;20296;-83
2022/02/19 11:46:23;;;;;;;0.53;0.20;;;10.30;99.90;;;;;;4987514;28;20250;-82
2022/02/19 11:48:50;;;;;;;0.10;0.10;;;10.20;99.90;;;;;;5023618;28;20284;-83
2022/02/19 11:51:24;;;;;;;0.47;0.20;;;10.00;99.90;;;;;;5022047;28;20289;-83
2022/02/19 11:53:51;;;;;;;0.10;0.10;;;9.90;99.90;;;;;;5024565;28;20176;-83
2022/02/19 11:56:49;;;;;;;0.10;0.10;;;9.70;99.90;;;;;;5027014;28;20710;-82
2022/02/19 11:59:18;;;;;;;0.73;0.40;;;10.00;99.90;;;;;;5003676;28;20190;-83
2022/02/19 12:01:47;;;;;;;0.70;0.70;;;10.00;99.90;;;;;;5028485;28;20213;-82
2022/02/19 12:04:19;;;;;;;0.10;0.10;;;10.20;99.90;;;;;;5025351;28;20561;-83
2022/02/19 12:07:14;;;;;;;0.10;0.10;;;10.20;99.90;;;;;;5028666;28;20212;-82
2022/02/19 12:10:08;;;;;;;0.13;0.13;;;10.10;99.90;;;;;;5022520;28;20663;-82
2022/02/19 12:13:13;;;;;;;0.47;0.20;;;9.70;99.90;;;;;;5023312;28;20175;-82
2022/02/19 12:15:40;;;;;;;0.27;0.27;;;9.70;99.90;;;;;;5023669;28;20185;-82
2022/02/19 12:18:09;;;;;;;0.17;0.17;;;9.60;99.90;;;;;;5025927;28;20239;-82
2022/02/19 12:20:36;;;;;;;0.10;0.10;;;9.70;99.90;;;;;;5021587;28;20188;-82
2022/02/19 12:23:05;;;;;;;0.10;0.10;;;9.60;99.90;;;;;;5023041;28;20186;-82
2022/02/19 12:26:01;;;;;;;0.20;0.20;;;9.50;99.90;;;;;;5023554;28;20658;-83
2022/02/19 12:28:27;;;;;;;0.37;0.37;;;9.50;99.90;;;;;;5024504;28;20218;-82
2022/02/19 12:31:20;;;;;;;0.23;0.23;;;9.40;99.90;;;;;;5022462;28;20185;-82
2022/02/19 12:33:48;;;;;;;0.10;0.10;;;9.40;99.90;;;;;;5026904;28;20185;-82
2022/02/19 12:36:13;;;;;;;0.10;0.10;;;9.30;99.90;;;;;;5025526;28;20219;-83
2022/02/19 12:38:47;;;;;;;0.17;0.17;;;9.40;99.90;;;;;;5025391;28;20190;-83
2022/02/19 12:41:13;;;;;;;0.10;0.10;;;9.50;99.90;;;;;;5020691;28;20219;-83
2022/02/19 12:43:39;;;;;;;0.40;0.10;;;9.50;99.90;;;;;;5019749;28;20318;-82
2022/02/19 12:46:04;;;;;;;0.10;0.10;;;10.00;99.90;;;;;;5026326;28;20208;-83
2022/02/19 12:48:30;;;;;;;0.10;0.10;;;9.90;99.90;;;;;;5022376;28;20219;-82
2022/02/19 12:50:58;;;;;;;0.53;0.53;;;9.80;99.90;;;;;;5023514;28;20185;-82
2022/02/19 12:53:24;;;;;;;0.10;0.10;;;9.80;99.90;;;;;;5021607;28;20186;-83
2022/02/19 12:55:55;;;;;;;2.20;0.20;;;9.80;99.90;;;;;;5024654;28;20188;-83
2022/02/19 12:58:21;;;;;;;0.53;0.53;;;9.60;99.90;;;;;;5024476;28;20183;-83
2022/02/19 13:00:54;;;;;;;0.10;0.10;;;9.50;99.90;;;;;;5025531;28;20193;-82
2022/02/19 13:03:20;;;;;;;0.03;0.03;;;9.50;99.90;;;;;;5024351;28;20215;-83